Time;durP1;ratioP1;P1;durP2;ratioP2;P2;SDS_P1;SDS_P2;PMS_P1;PMS_P2;Temp;Humidity;BMP_temperature;BMP_pressure;BME280_temperature;BME280_humidity;BME280_pressure;Samples;Min_cycle;Max_cycle;Signal;HPM_P1;HPM_P2
2022/07/12 00:00:55;;;;;;;4.72;2.45;;;15.80;99.90;;;;;;6215841;23;20095;-69
2022/07/12 00:03:21;;;;;;;5.53;1.77;;;15.80;99.90;;;;;;6215881;23;20503;-69
2022/07/12 00:05:46;;;;;;;3.25;1.85;;;15.80;99.90;;;;;;6215845;23;20088;-69
2022/07/12 00:08:12;;;;;;;3.40;1.80;;;15.80;99.90;;;;;;6215841;23;20330;-69
2022/07/12 00:10:38;;;;;;;2.90;1.60;;;15.80;99.90;;;;;;6189348;23;20020;-69
2022/07/12 00:13:04;;;;;;;3.60;2.28;;;15.80;99.90;;;;;;6215680;23;20492;-68
2022/07/12 00:15:30;;;;;;;3.53;2.08;;;15.80;99.90;;;;;;6215725;23;20059;-69
2022/07/12 00:17:56;;;;;;;3.33;1.92;;;15.80;99.90;;;;;;6215811;23;20024;-69
2022/07/12 00:20:22;;;;;;;4.60;2.15;;;15.80;99.90;;;;;;6164539;23;20032;-69
2022/07/12 00:22:48;;;;;;;4.28;2.53;;;16.00;99.90;;;;;;6215808;23;20016;-69
2022/07/12 00:25:13;;;;;;;3.75;2.00;;;15.80;99.90;;;;;;6215561;23;20151;-70
2022/07/12 00:27:40;;;;;;;5.00;2.70;;;15.80;99.90;;;;;;6215725;23;20013;-69
2022/07/12 00:30:07;;;;;;;4.35;2.55;;;15.80;99.90;;;;;;6188798;23;20059;-69
2022/07/12 00:32:33;;;;;;;5.70;2.70;;;15.80;99.90;;;;;;6216070;23;20064;-69
2022/07/12 00:34:59;;;;;;;4.03;2.10;;;15.80;99.90;;;;;;6215380;23;20377;-69
2022/07/12 00:37:25;;;;;;;4.07;2.50;;;15.80;99.90;;;;;;6215338;23;20043;-69
2022/07/12 00:39:51;;;;;;;3.55;2.17;;;15.80;99.90;;;;;;6189078;23;20100;-69
2022/07/12 00:42:17;;;;;;;6.57;2.67;;;15.80;99.90;;;;;;6188486;23;20042;-69
2022/07/12 00:44:43;;;;;;;3.45;2.13;;;15.80;99.90;;;;;;6163577;23;20021;-69
2022/07/12 00:47:30;;;;;;;5.60;2.22;;;15.70;99.90;;;;;;6215721;23;20520;-69
2022/07/12 00:49:56;;;;;;;3.90;2.35;;;15.70;99.90;;;;;;6215714;23;20024;-70
2022/07/12 00:52:23;;;;;;;3.45;2.08;;;15.70;99.90;;;;;;6216671;23;20058;-69
2022/07/12 00:54:49;;;;;;;3.72;2.10;;;15.70;99.90;;;;;;6190335;23;20021;-69
2022/07/12 00:57:15;;;;;;;4.00;2.25;;;15.70;99.90;;;;;;6217418;23;20027;-69
2022/07/12 00:59:41;;;;;;;5.85;2.75;;;15.70;99.90;;;;;;6190949;23;20016;-68
2022/07/12 01:02:07;;;;;;;5.90;2.92;;;15.70;99.90;;;;;;6217387;23;20042;-70
2022/07/12 01:04:35;;;;;;;4.43;2.85;;;15.70;99.90;;;;;;6217309;23;20016;-70
2022/07/12 01:07:01;;;;;;;6.22;3.65;;;15.70;99.90;;;;;;6190867;23;20095;-69
2022/07/12 01:09:28;;;;;;;6.78;3.38;;;15.70;99.90;;;;;;6190931;23;20393;-69
2022/07/12 01:11:54;;;;;;;8.82;3.88;;;15.70;99.90;;;;;;6217245;23;20319;-69
2022/07/12 01:14:20;;;;;;;7.70;3.40;;;15.70;99.90;;;;;;6217091;23;20016;-69
2022/07/12 01:16:47;;;;;;;6.60;3.17;;;15.70;99.90;;;;;;6217286;23;20023;-69
2022/07/12 01:19:20;;;;;;;7.05;3.35;;;15.70;99.90;;;;;;6216926;23;20021;-69
2022/07/12 01:21:48;;;;;;;6.05;3.78;;;15.70;99.90;;;;;;6217205;23;20027;-69
2022/07/12 01:24:15;;;;;;;9.30;4.97;;;15.70;99.90;;;;;;6190480;23;20438;-69
2022/07/12 01:26:41;;;;;;;8.05;4.70;;;15.70;99.90;;;;;;6216935;23;20056;-69
2022/07/12 01:29:08;;;;;;;8.23;4.18;;;15.60;99.90;;;;;;6217216;23;20012;-69
2022/07/12 01:31:35;;;;;;;9.55;4.60;;;15.60;99.90;;;;;;6217204;23;20082;-69
2022/07/12 01:34:02;;;;;;;7.85;4.65;;;15.60;99.90;;;;;;6190767;23;20143;-69
2022/07/12 01:36:29;;;;;;;7.95;4.32;;;15.60;99.90;;;;;;6217099;23;20009;-69
2022/07/12 01:38:55;;;;;;;8.93;5.10;;;15.60;99.90;;;;;;6190102;23;20051;-69
2022/07/12 01:41:23;;;;;;;9.32;5.40;;;15.60;99.90;;;;;;6165535;23;20100;-69
2022/07/12 01:43:50;;;;;;;7.40;4.50;;;15.60;99.90;;;;;;6216732;23;20462;-69
2022/07/12 01:46:16;;;;;;;8.40;4.47;;;15.50;99.90;;;;;;6216786;23;20458;-69
2022/07/12 01:48:41;;;;;;;8.88;5.03;;;15.60;99.90;;;;;;6217022;23;20100;-69
2022/07/12 01:51:07;;;;;;;9.50;6.22;;;15.50;99.90;;;;;;6189053;23;20021;-69
2022/07/12 01:53:35;;;;;;;8.90;5.28;;;15.50;99.90;;;;;;6216897;23;20051;-69
2022/07/12 01:56:02;;;;;;;8.65;5.00;;;15.50;99.90;;;;;;6216691;23;20053;-69
2022/07/12 01:58:27;;;;;;;12.93;6.15;;;15.50;99.90;;;;;;6190063;23;20016;-69
2022/07/12 02:00:54;;;;;;;10.23;5.97;;;15.50;99.90;;;;;;6216481;23;20013;-69
2022/07/12 02:03:20;;;;;;;10.55;5.75;;;15.50;99.90;;;;;;6216342;23;20017;-69
2022/07/12 02:05:46;;;;;;;10.48;5.95;;;15.50;99.90;;;;;;6216696;23;20017;-69
2022/07/12 02:08:12;;;;;;;;;;;15.50;99.90;;;;;;6190730;23;20017;-69
2022/07/12 02:10:39;;;;;;;8.23;5.63;;;15.50;99.90;;;;;;6216713;23;20347;-69
2022/07/12 02:13:05;;;;;;;9.90;5.65;;;15.50;99.90;;;;;;6216616;23;20017;-68
2022/07/12 02:15:31;;;;;;;;;;;15.50;99.90;;;;;;6190710;23;20063;-70
2022/07/12 02:17:57;;;;;;;8.82;5.63;;;15.60;99.90;;;;;;6216628;23;20227;-69
2022/07/12 02:20:22;;;;;;;;;;;15.50;99.90;;;;;;6217197;23;20017;-69
2022/07/12 02:22:48;;;;;;;10.80;5.95;;;15.50;99.90;;;;;;6216666;23;20340;-69
2022/07/12 02:25:14;;;;;;;11.27;6.50;;;15.50;99.90;;;;;;6216404;23;20322;-70
2022/07/12 02:27:43;;;;;;;9.80;5.57;;;15.50;99.90;;;;;;6189941;23;20020;-69
2022/07/12 02:30:11;;;;;;;9.85;5.88;;;15.50;99.90;;;;;;6216623;23;20017;-69
2022/07/12 02:32:37;;;;;;;8.75;5.53;;;15.50;99.90;;;;;;6216532;23;20020;-69
2022/07/12 02:35:06;;;;;;;10.60;5.75;;;15.40;99.90;;;;;;6189874;23;20016;-69
2022/07/12 02:37:32;;;;;;;9.75;6.05;;;15.40;99.90;;;;;;6216539;23;20016;-68
2022/07/12 02:42:43;;;;;;;10.80;6.55;;;15.40;99.90;;;;;;6215992;23;20099;-70
2022/07/12 02:45:09;;;;;;;12.57;7.03;;;15.40;99.90;;;;;;6216402;23;20393;-69
2022/07/12 02:47:41;;;;;;;10.00;6.60;;;15.40;99.90;;;;;;6216364;23;20028;-69
2022/07/12 02:50:07;;;;;;;11.10;7.10;;;15.30;99.90;;;;;;6189852;23;20067;-69
2022/07/12 02:52:34;;;;;;;10.55;7.15;;;15.40;99.90;;;;;;6189255;23;20017;-69
2022/07/12 02:54:59;;;;;;;11.77;7.13;;;15.40;99.90;;;;;;6216156;23;20012;-69
2022/07/12 02:57:25;;;;;;;12.43;7.45;;;15.40;99.90;;;;;;6216404;23;20021;-70
2022/07/12 02:59:51;;;;;;;10.70;6.80;;;15.30;99.90;;;;;;6216261;23;20016;-69
2022/07/12 03:02:17;;;;;;;10.40;6.20;;;15.30;99.90;;;;;;6216164;23;20023;-69
2022/07/12 03:04:42;;;;;;;11.30;6.82;;;15.30;99.90;;;;;;6216136;23;20020;-69
2022/07/12 03:07:08;;;;;;;13.93;7.45;;;15.30;99.90;;;;;;6189796;23;20016;-71
2022/07/12 03:09:35;;;;;;;10.70;6.60;;;15.30;99.90;;;;;;6216323;23;20449;-68
2022/07/12 03:12:00;;;;;;;10.05;6.10;;;15.30;99.90;;;;;;6189513;23;20024;-69
2022/07/12 03:14:26;;;;;;;9.98;6.20;;;15.40;99.90;;;;;;6216199;23;20495;-69
2022/07/12 03:16:52;;;;;;;11.85;6.60;;;15.30;99.90;;;;;;6216170;23;20086;-69
2022/07/12 03:19:17;;;;;;;11.50;6.70;;;15.30;99.90;;;;;;6188549;23;20021;-69
2022/07/12 03:21:43;;;;;;;10.13;6.63;;;15.30;99.90;;;;;;6216154;23;20020;-69
2022/07/12 03:24:10;;;;;;;14.63;7.05;;;15.30;99.90;;;;;;6189685;23;20020;-69
2022/07/12 03:26:36;;;;;;;11.70;6.03;;;15.40;99.90;;;;;;6215939;23;20021;-70
2022/07/12 03:29:01;;;;;;;15.10;7.82;;;15.40;99.90;;;;;;6216084;23;20110;-69
2022/07/12 03:31:27;;;;;;;11.50;7.75;;;15.30;99.90;;;;;;6216098;23;20017;-68
2022/07/12 03:33:53;;;;;;;13.45;7.93;;;15.30;99.90;;;;;;6216046;23;20374;-69
2022/07/12 03:36:19;;;;;;;11.48;8.05;;;15.30;99.90;;;;;;6215983;23;20111;-69
2022/07/12 03:38:44;;;;;;;11.57;7.63;;;15.40;99.90;;;;;;6215978;23;20016;-70
2022/07/12 03:41:10;;;;;;;11.70;6.20;;;15.30;99.90;;;;;;6215905;23;20017;-69
2022/07/12 03:43:36;;;;;;;13.90;7.57;;;15.30;99.90;;;;;;6216123;23;20103;-69
2022/07/12 03:46:01;;;;;;;14.10;7.32;;;15.60;99.90;;;;;;6215850;23;20012;-69
2022/07/12 03:48:27;;;;;;;12.73;8.15;;;15.30;99.90;;;;;;6216045;23;20012;-69
2022/07/12 03:50:53;;;;;;;13.77;7.38;;;15.30;99.90;;;;;;6216282;23;20017;-69
2022/07/12 03:53:19;;;;;;;;;;;15.30;99.90;;;;;;6216418;23;20350;-69
2022/07/12 03:55:44;;;;;;;11.77;6.32;;;15.30;99.90;;;;;;6215822;23;20003;-70
2022/07/12 03:58:10;;;;;;;15.98;8.65;;;15.30;99.90;;;;;;6215794;23;20492;-69
2022/07/12 04:00:36;;;;;;;11.85;7.65;;;15.40;99.90;;;;;;6215607;23;20031;-70
2022/07/12 04:03:01;;;;;;;13.38;7.95;;;15.30;99.90;;;;;;6215843;23;20027;-69
2022/07/12 04:05:27;;;;;;;13.40;7.63;;;15.30;99.90;;;;;;6188848;23;20035;-68
2022/07/12 04:07:53;;;;;;;11.48;6.90;;;15.40;99.90;;;;;;6215818;23;20047;-70
2022/07/12 04:10:20;;;;;;;13.23;7.60;;;15.30;99.90;;;;;;6215726;23;20020;-69
2022/07/12 04:12:46;;;;;;;14.15;7.90;;;15.40;99.90;;;;;;6215789;23;20052;-69
2022/07/12 04:15:11;;;;;;;;;;;15.40;99.90;;;;;;6216488;23;20017;-69
2022/07/12 04:17:38;;;;;;;12.57;8.00;;;15.30;99.90;;;;;;6215860;23;19984;-69
2022/07/12 04:20:04;;;;;;;14.23;8.25;;;15.30;99.90;;;;;;6215832;23;20091;-69
2022/07/12 04:22:30;;;;;;;12.68;8.15;;;15.30;99.90;;;;;;6215762;23;20017;-69
2022/07/12 04:24:56;;;;;;;13.25;8.23;;;15.30;99.90;;;;;;6189148;23;20031;-69
2022/07/12 04:27:22;;;;;;;14.82;8.80;;;15.30;99.90;;;;;;6216695;23;20087;-69
2022/07/12 04:29:48;;;;;;;12.60;7.50;;;15.30;99.90;;;;;;6217758;23;20016;-69
2022/07/12 04:32:13;;;;;;;14.45;8.38;;;15.50;99.90;;;;;;6217649;23;20012;-70
2022/07/12 04:34:39;;;;;;;14.70;7.55;;;15.30;99.90;;;;;;6218021;23;20024;-69
2022/07/12 04:37:04;;;;;;;14.13;8.73;;;15.30;99.90;;;;;;6217756;23;20333;-69
2022/07/12 04:39:30;;;;;;;14.98;8.13;;;15.30;99.90;;;;;;6217206;23;20056;-68
2022/07/12 04:41:56;;;;;;;13.82;8.20;;;15.30;99.90;;;;;;6217470;23;20083;-69
2022/07/12 04:44:22;;;;;;;13.27;7.55;;;15.30;99.90;;;;;;6217089;23;20028;-69
2022/07/12 04:46:47;;;;;;;14.02;8.88;;;15.30;99.90;;;;;;6217568;23;20486;-69
2022/07/12 04:49:13;;;;;;;11.93;7.72;;;15.30;99.90;;;;;;6217569;23;20016;-70
2022/07/12 04:51:39;;;;;;;14.57;8.45;;;15.40;99.90;;;;;;6217575;23;20020;-69
2022/07/12 04:54:04;;;;;;;13.90;8.40;;;15.40;99.90;;;;;;6217523;23;20497;-69
2022/07/12 04:56:30;;;;;;;12.43;8.02;;;15.40;99.90;;;;;;6166069;23;20027;-70
2022/07/12 04:58:56;;;;;;;12.02;8.23;;;15.40;99.90;;;;;;6217516;23;20341;-69
2022/07/12 05:01:21;;;;;;;14.88;8.20;;;15.40;99.90;;;;;;6217570;23;20028;-70
2022/07/12 05:03:47;;;;;;;15.90;8.68;;;15.40;99.90;;;;;;6217350;23;20346;-70
2022/07/12 05:06:13;;;;;;;12.10;6.10;;;15.40;99.90;;;;;;6190815;23;20016;-69
2022/07/12 05:08:39;;;;;;;14.13;7.03;;;15.40;99.90;;;;;;6190942;23;20103;-69
2022/07/12 05:11:04;;;;;;;14.32;7.45;;;15.40;99.90;;;;;;6217379;23;20027;-69
2022/07/12 05:13:30;;;;;;;14.82;9.18;;;15.40;99.90;;;;;;6190803;23;20017;-69
2022/07/12 05:15:56;;;;;;;15.05;8.07;;;15.40;99.90;;;;;;6217205;23;20020;-69
2022/07/12 05:18:22;;;;;;;13.75;6.75;;;15.40;99.90;;;;;;6217275;23;20071;-69
2022/07/12 05:20:48;;;;;;;12.75;7.13;;;15.40;99.90;;;;;;6190627;23;20334;-69
2022/07/12 05:23:13;;;;;;;12.35;6.90;;;15.40;99.90;;;;;;6217240;23;20016;-69
2022/07/12 05:25:39;;;;;;;12.13;7.20;;;15.40;99.90;;;;;;6216958;23;20022;-69
2022/07/12 05:28:05;;;;;;;11.55;6.78;;;15.40;99.90;;;;;;6216779;23;20013;-69
2022/07/12 05:30:31;;;;;;;12.65;6.80;;;15.40;99.90;;;;;;6217563;23;20016;-69
2022/07/12 05:32:57;;;;;;;12.50;7.90;;;15.30;99.90;;;;;;6217201;23;20020;-69
2022/07/12 05:35:22;;;;;;;10.68;6.85;;;15.30;99.90;;;;;;6217107;23;20442;-69
2022/07/12 05:37:48;;;;;;;11.85;6.72;;;15.30;99.90;;;;;;6216530;23;20021;-69
2022/07/12 05:40:14;;;;;;;12.90;6.82;;;15.30;99.90;;;;;;6216848;23;20066;-69
2022/07/12 05:42:39;;;;;;;9.93;6.85;;;15.30;99.90;;;;;;6217058;23;20493;-69
2022/07/12 05:45:06;;;;;;;10.10;5.45;;;15.30;99.90;;;;;;6217028;23;20020;-70
2022/07/12 05:47:32;;;;;;;11.52;6.03;;;15.30;99.90;;;;;;6217107;23;20055;-69
2022/07/12 05:49:58;;;;;;;10.57;6.15;;;15.40;99.90;;;;;;6216886;23;20027;-69
2022/07/12 05:55:07;;;;;;;10.45;6.50;;;15.40;99.90;;;;;;6190168;23;20067;-69
2022/07/12 05:57:33;;;;;;;10.32;6.15;;;15.40;99.90;;;;;;6216851;23;20021;-69
2022/07/12 05:59:59;;;;;;;11.00;6.40;;;15.40;99.90;;;;;;6216869;23;20052;-70
2022/07/12 06:02:24;;;;;;;13.07;7.22;;;15.40;99.90;;;;;;6216826;23;20020;-70
2022/07/12 06:04:50;;;;;;;10.20;6.10;;;15.40;99.90;;;;;;6216784;23;20036;-69
2022/07/12 06:07:16;;;;;;;12.93;7.32;;;15.40;99.90;;;;;;6216765;23;20028;-70
2022/07/12 06:09:42;;;;;;;11.48;7.15;;;15.40;99.90;;;;;;6216772;23;20016;-69
2022/07/12 06:12:08;;;;;;;12.57;7.13;;;15.50;99.90;;;;;;6216714;23;20100;-69
2022/07/12 06:14:33;;;;;;;12.20;6.88;;;15.40;99.90;;;;;;6215400;23;20089;-68
2022/07/12 06:16:59;;;;;;;12.85;7.18;;;15.50;99.90;;;;;;6190183;23;20020;-69
2022/07/12 06:19:26;;;;;;;13.25;7.28;;;15.50;99.90;;;;;;6189795;23;20013;-69
2022/07/12 06:21:52;;;;;;;13.88;7.07;;;15.50;99.90;;;;;;6216546;23;20055;-69
2022/07/12 06:24:17;;;;;;;11.82;7.13;;;15.50;99.90;;;;;;6216365;23;20016;-69
2022/07/12 06:26:43;;;;;;;11.45;7.00;;;15.60;99.90;;;;;;6190033;23;20378;-69
2022/07/12 06:29:09;;;;;;;13.07;6.40;;;15.60;99.90;;;;;;6216540;23;20020;-69
2022/07/12 06:31:35;;;;;;;11.68;5.78;;;15.60;99.90;;;;;;6216520;23;20016;-69
2022/07/12 06:34:00;;;;;;;13.00;6.53;;;15.60;99.90;;;;;;6216895;23;20017;-69
2022/07/12 06:36:26;;;;;;;10.27;6.55;;;15.70;99.90;;;;;;6216474;23;20017;-69
2022/07/12 06:38:52;;;;;;;10.82;7.18;;;15.70;99.90;;;;;;6216539;23;20021;-69
2022/07/12 06:41:17;;;;;;;10.88;6.35;;;15.70;99.90;;;;;;6216104;23;20096;-70
2022/07/12 06:43:43;;;;;;;13.07;7.43;;;15.70;99.90;;;;;;6216263;23;20020;-69
2022/07/12 06:46:08;;;;;;;9.02;5.40;;;15.80;99.90;;;;;;6216212;23;20343;-70
2022/07/12 06:48:34;;;;;;;8.68;4.93;;;15.80;99.90;;;;;;6163994;23;20025;-69
2022/07/12 06:51:00;;;;;;;11.75;6.47;;;15.90;99.90;;;;;;6164890;23;20079;-70
2022/07/12 06:53:26;;;;;;;9.95;6.60;;;15.90;99.90;;;;;;6189905;23;20377;-69
2022/07/12 06:55:51;;;;;;;10.48;5.88;;;15.90;99.90;;;;;;6216161;23;20051;-70
2022/07/12 06:58:17;;;;;;;9.90;6.10;;;15.90;99.90;;;;;;6216237;23;20303;-69
2022/07/12 07:00:43;;;;;;;9.02;5.75;;;16.00;99.90;;;;;;6215122;23;20012;-70
2022/07/12 07:03:10;;;;;;;;;;;16.00;99.90;;;;;;6215937;23;20027;-70
2022/07/12 07:05:36;;;;;;;12.38;7.35;;;16.00;99.90;;;;;;6215890;23;20006;-69
2022/07/12 07:08:03;;;;;;;;;;;16.10;99.90;;;;;;6215977;23;20027;-69
2022/07/12 07:10:37;;;;;;;12.13;6.32;;;16.10;99.90;;;;;;6215890;23;20045;-69
2022/07/12 07:13:03;;;;;;;10.07;6.15;;;16.20;99.90;;;;;;6215657;23;20055;-69
2022/07/12 07:15:29;;;;;;;10.57;6.63;;;16.20;99.90;;;;;;6188849;23;20024;-70
2022/07/12 07:17:56;;;;;;;11.05;7.00;;;16.20;99.90;;;;;;6189274;23;20023;-70
2022/07/12 07:20:22;;;;;;;10.93;6.57;;;16.30;99.90;;;;;;6188196;23;20020;-69
2022/07/12 07:22:48;;;;;;;11.50;6.80;;;16.30;99.90;;;;;;6215884;23;20023;-69
2022/07/12 07:25:14;;;;;;;11.65;6.28;;;16.30;99.90;;;;;;6215680;23;20017;-69
2022/07/12 07:27:40;;;;;;;9.98;6.18;;;16.40;99.90;;;;;;6213525;23;20020;-70
2022/07/12 07:32:51;;;;;;;11.27;6.30;;;16.50;99.90;;;;;;6193296;23;20024;-70
2022/07/12 07:35:17;;;;;;;10.27;6.15;;;16.50;99.90;;;;;;6215792;23;20091;-69
2022/07/12 07:37:43;;;;;;;10.55;6.18;;;16.60;99.90;;;;;;6189402;23;20020;-69
2022/07/12 07:40:09;;;;;;;9.35;5.40;;;16.60;99.90;;;;;;6189172;23;20071;-69
2022/07/12 07:42:35;;;;;;;10.55;6.35;;;16.70;99.90;;;;;;6215610;23;20096;-69
2022/07/12 07:45:03;;;;;;;9.70;5.30;;;16.70;99.90;;;;;;6215576;23;20058;-70
2022/07/12 07:47:29;;;;;;;9.40;5.97;;;16.80;99.90;;;;;;6188391;23;20446;-69
2022/07/12 07:49:55;;;;;;;9.07;5.50;;;16.80;99.90;;;;;;6215761;23;20023;-69
2022/07/12 07:52:21;;;;;;;10.32;6.80;;;16.90;99.90;;;;;;6215680;23;20023;-71
2022/07/12 07:54:47;;;;;;;8.88;5.85;;;16.90;99.90;;;;;;6215685;23;20043;-70
2022/07/12 07:57:13;;;;;;;7.32;5.30;;;16.90;99.90;;;;;;6215885;23;20405;-70
2022/07/12 07:59:38;;;;;;;9.52;5.50;;;17.00;99.90;;;;;;6215645;23;20054;-70
2022/07/12 08:02:05;;;;;;;8.70;5.32;;;17.00;99.90;;;;;;6216536;23;20461;-69
2022/07/12 08:04:31;;;;;;;8.77;5.43;;;17.10;99.90;;;;;;6217593;23;20020;-69
2022/07/12 08:06:58;;;;;;;;;;;17.20;99.90;;;;;;6218219;23;20017;-69
2022/07/12 08:09:24;;;;;;;7.25;5.00;;;17.20;99.90;;;;;;6217593;23;20050;-69
2022/07/12 08:11:50;;;;;;;8.55;5.28;;;17.20;99.90;;;;;;6191116;23;20315;-70
2022/07/12 08:14:15;;;;;;;8.57;5.38;;;17.40;99.90;;;;;;6217408;23;20074;-70
2022/07/12 08:16:41;;;;;;;8.23;4.82;;;17.40;99.90;;;;;;6217258;23;20059;-70
2022/07/12 08:19:07;;;;;;;9.80;6.30;;;17.50;99.90;;;;;;6217552;23;20096;-71
2022/07/12 08:21:33;;;;;;;8.57;4.88;;;17.50;99.90;;;;;;6191072;23;20013;-69
2022/07/12 08:23:59;;;;;;;10.05;5.82;;;17.60;99.90;;;;;;6217560;23;20048;-70
2022/07/12 08:26:24;;;;;;;9.23;6.38;;;17.60;99.90;;;;;;6190194;23;20435;-71
2022/07/12 08:28:51;;;;;;;8.93;5.05;;;17.70;99.90;;;;;;6190727;23;20024;-69
2022/07/12 08:31:17;;;;;;;9.38;5.28;;;17.70;99.90;;;;;;6190336;23;20029;-71
2022/07/12 08:33:43;;;;;;;9.02;5.28;;;17.80;99.90;;;;;;6217708;23;20465;-71
2022/07/12 08:36:09;;;;;;;9.85;5.95;;;17.80;99.90;;;;;;6217474;23;20017;-70
2022/07/12 08:38:38;;;;;;;8.70;5.28;;;17.90;99.90;;;;;;6190858;23;20056;-70
2022/07/12 08:41:04;;;;;;;9.13;4.47;;;18.10;99.90;;;;;;6217243;23;20020;-70
2022/07/12 08:43:33;;;;;;;;;;;18.10;99.90;;;;;;6190799;23;20469;-70
2022/07/12 08:46:28;;;;;;;9.77;4.78;;;18.10;99.90;;;;;;6217326;23;19926;-70
2022/07/12 08:48:53;;;;;;;8.63;4.20;;;18.20;99.90;;;;;;6067121;23;20054;-70
2022/07/12 08:51:20;;;;;;;7.68;3.78;;;18.30;99.90;;;;;;6067190;23;20075;-70
2022/07/12 08:53:47;;;;;;;7.75;4.00;;;18.40;99.90;;;;;;6067168;23;20547;-70
2022/07/12 08:56:33;;;;;;;7.93;4.88;;;18.40;99.90;;;;;;6066601;23;20396;-70
2022/07/12 08:59:14;;;;;;;5.78;3.20;;;18.50;99.90;;;;;;6067068;23;20027;-70
2022/07/12 09:01:50;;;;;;;9.75;4.47;;;18.50;99.90;;;;;;6042927;23;20094;-70
2022/07/12 09:04:20;;;;;;;6.78;4.20;;;18.50;99.90;;;;;;6066968;23;20034;-70
2022/07/12 09:06:47;;;;;;;5.97;3.78;;;18.60;99.90;;;;;;6043025;23;20102;-70
2022/07/12 09:09:32;;;;;;;5.80;3.70;;;18.60;99.90;;;;;;6066925;23;20030;-70
2022/07/12 09:11:59;;;;;;;5.10;3.20;;;18.70;99.90;;;;;;6042565;23;20078;-70
2022/07/12 09:14:26;;;;;;;6.22;3.83;;;18.70;99.90;;;;;;6066429;23;20023;-70
2022/07/12 09:17:21;;;;;;;5.22;3.60;;;18.80;99.90;;;;;;6066805;23;20023;-69
2022/07/12 09:19:56;;;;;;;6.43;2.95;;;18.90;99.90;;;;;;6064422;23;20027;-70
2022/07/12 09:22:23;;;;;;;6.35;3.67;;;18.90;99.90;;;;;;6066792;23;20019;-70
2022/07/12 09:24:48;;;;;;;5.85;3.40;;;19.00;99.90;;;;;;6112833;23;20446;-70
2022/07/12 09:27:14;;;;;;;4.40;2.63;;;19.00;99.90;;;;;;6216815;23;20024;-70
2022/07/12 09:29:48;;;;;;;5.95;3.00;;;19.20;99.90;;;;;;6216931;23;20023;-70
2022/07/12 09:37:43;;;;;;;4.60;2.50;;;19.40;99.90;;;;;;6216510;23;20404;-70
2022/07/12 09:40:10;;;;;;;5.80;2.10;;;19.50;99.90;;;;;;6190204;23;20107;-71
2022/07/12 09:42:37;;;;;;;4.13;2.47;;;19.60;99.90;;;;;;6189586;23;20025;-71
2022/07/12 09:45:04;;;;;;;3.38;2.20;;;19.60;99.90;;;;;;6216682;23;20016;-70
2022/07/12 09:47:31;;;;;;;3.60;2.33;;;19.70;99.90;;;;;;6190335;23;20021;-69
2022/07/12 09:49:56;;;;;;;3.65;2.00;;;19.80;99.90;;;;;;6217056;23;20082;-70
2022/07/12 09:52:27;;;;;;;3.60;2.28;;;19.80;99.90;;;;;;6216673;23;20020;-69
2022/07/12 09:54:54;;;;;;;5.82;2.88;;;19.80;99.90;;;;;;6190212;23;20087;-69
2022/07/12 09:57:26;;;;;;;3.92;2.55;;;19.90;99.90;;;;;;6216490;23;20021;-70
2022/07/12 09:59:53;;;;;;;4.15;2.50;;;19.90;99.90;;;;;;6216687;23;20016;-70
2022/07/12 10:02:21;;;;;;;3.72;2.65;;;19.90;99.90;;;;;;6216540;23;20028;-70
2022/07/12 10:04:48;;;;;;;4.25;2.75;;;20.00;99.90;;;;;;6216856;23;20016;-70
2022/07/12 10:07:15;;;;;;;5.22;2.97;;;20.00;99.90;;;;;;6216671;23;20099;-70
2022/07/12 10:09:44;;;;;;;3.70;2.33;;;20.00;99.90;;;;;;6216567;23;20088;-70
2022/07/12 10:12:16;;;;;;;2.80;1.52;;;20.00;99.90;;;;;;6189994;23;20027;-70
2022/07/12 10:14:43;;;;;;;2.65;1.75;;;20.10;99.90;;;;;;6216407;23;20012;-70
2022/07/12 10:17:10;;;;;;;3.60;2.05;;;20.10;99.90;;;;;;6216486;23;20016;-70
2022/07/12 10:19:37;;;;;;;2.97;1.75;;;20.20;99.90;;;;;;6216509;23;20074;-70
2022/07/12 10:22:23;;;;;;;3.53;1.70;;;20.30;99.90;;;;;;6216453;23;20377;-70
2022/07/12 10:24:54;;;;;;;3.90;2.10;;;20.30;99.90;;;;;;6215639;23;20326;-69
2022/07/12 10:27:20;;;;;;;4.60;1.50;;;20.40;99.90;;;;;;6189304;23;20036;-70
2022/07/12 10:29:53;;;;;;;2.63;1.50;;;20.40;99.90;;;;;;6216241;23;20070;-70
2022/07/12 10:32:25;;;;;;;4.22;2.10;;;20.40;99.90;;;;;;6216257;23;20034;-70
2022/07/12 10:35:30;;;;;;;4.85;1.70;;;20.40;99.90;;;;;;6216299;23;20051;-71
2022/07/12 10:38:10;;;;;;;3.40;1.88;;;20.40;99.90;;;;;;6042222;23;20029;-70
2022/07/12 10:40:37;;;;;;;4.15;1.92;;;20.40;99.90;;;;;;6042012;23;20023;-70
2022/07/12 10:43:03;;;;;;;;;;;20.50;99.90;;;;;;6065884;23;20438;-70
2022/07/12 10:45:38;;;;;;;3.65;1.65;;;20.50;99.90;;;;;;6065832;23;19924;-70
2022/07/12 10:48:20;;;;;;;2.42;1.50;;;20.60;99.90;;;;;;6066122;23;20022;-70
2022/07/12 10:50:48;;;;;;;2.08;1.50;;;20.60;99.90;;;;;;6065947;23;20023;-70
2022/07/12 10:53:20;;;;;;;1.90;1.23;;;20.70;99.90;;;;;;6041606;23;20023;-70
2022/07/12 10:56:04;;;;;;;3.17;1.70;;;20.70;99.90;;;;;;6065715;23;20077;-71
2022/07/12 10:58:43;;;;;;;2.40;1.40;;;20.70;99.90;;;;;;6065801;23;20023;-70
2022/07/12 11:01:12;;;;;;;2.63;1.70;;;20.80;99.90;;;;;;6065928;23;20022;-70
2022/07/12 11:03:42;;;;;;;1.48;0.85;;;20.80;99.90;;;;;;6065771;23;20019;-70
2022/07/12 11:06:16;;;;;;;2.85;1.63;;;20.90;99.90;;;;;;6065694;23;20019;-71
2022/07/12 11:08:52;;;;;;;2.97;1.38;;;20.80;99.90;;;;;;6065773;23;20093;-71
2022/07/12 11:11:29;;;;;;;2.35;1.15;;;20.90;99.90;;;;;;6108623;23;20474;-70
2022/07/12 11:13:56;;;;;;;3.67;1.48;;;20.90;99.90;;;;;;6215790;23;20021;-70
2022/07/12 11:16:23;;;;;;;3.72;1.52;;;21.00;99.90;;;;;;6215813;23;20009;-71
2022/07/12 11:18:50;;;;;;;2.72;1.58;;;21.00;99.90;;;;;;6215896;23;20039;-70
2022/07/12 11:21:16;;;;;;;2.63;1.52;;;21.00;99.90;;;;;;6189201;23;20078;-71
2022/07/12 11:23:42;;;;;;;;;;;21.10;99.90;;;;;;6216381;23;20023;-71
2022/07/12 11:26:27;;;;;;;2.60;1.20;;;21.10;99.90;;;;;;6188926;23;19920;-71
2022/07/12 11:28:57;;;;;;;1.77;1.13;;;21.10;99.90;;;;;;6212586;23;20020;-71
2022/07/12 11:31:25;;;;;;;2.90;1.13;;;21.10;99.90;;;;;;6186846;23;20048;-71
2022/07/12 11:33:51;;;;;;;2.55;1.20;;;21.20;99.90;;;;;;6213917;23;20377;-71
2022/07/12 11:36:17;;;;;;;2.30;1.13;;;21.20;99.90;;;;;;6215731;23;20051;-71
2022/07/12 11:38:45;;;;;;;2.85;0.93;;;21.20;99.90;;;;;;6215797;23;20031;-70
2022/07/12 11:41:13;;;;;;;1.60;0.82;;;21.20;99.90;;;;;;6215736;23;20027;-71
2022/07/12 11:43:39;;;;;;;3.38;1.15;;;21.30;99.90;;;;;;6185371;23;20021;-71
2022/07/12 11:46:06;;;;;;;1.83;0.75;;;21.30;99.90;;;;;;6159112;23;20450;-71
2022/07/12 11:48:34;;;;;;;1.38;0.70;;;21.30;99.90;;;;;;6185477;23;20017;-71
2022/07/12 11:51:07;;;;;;;1.98;0.93;;;21.40;99.90;;;;;;6185600;23;20439;-70
2022/07/12 11:53:34;;;;;;;2.30;0.93;;;21.50;99.90;;;;;;6185500;23;20017;-71
2022/07/12 11:56:01;;;;;;;1.45;1.10;;;21.40;99.90;;;;;;6159196;23;20021;-70
2022/07/12 11:58:28;;;;;;;4.25;1.10;;;21.50;99.90;;;;;;6159224;23;20032;-70
2022/07/12 12:00:55;;;;;;;1.70;0.80;;;21.50;99.90;;;;;;6158571;23;20017;-71
2022/07/12 12:03:22;;;;;;;1.92;1.02;;;21.50;99.90;;;;;;6185326;23;20032;-72
2022/07/12 12:05:50;;;;;;;1.00;0.70;;;21.50;99.90;;;;;;6185410;23;20017;-71
2022/07/12 12:08:16;;;;;;;1.88;0.90;;;21.50;99.90;;;;;;6185606;23;20457;-71
2022/07/12 12:10:51;;;;;;;2.47;1.08;;;21.50;99.90;;;;;;6185563;23;20099;-71
2022/07/12 12:13:18;;;;;;;2.00;1.13;;;21.60;99.90;;;;;;6185550;23;20060;-71
2022/07/12 12:15:52;;;;;;;1.40;0.90;;;21.60;99.90;;;;;;6185459;23;20085;-71
2022/07/12 12:18:32;;;;;;;1.05;0.77;;;21.60;99.90;;;;;;6185411;23;20021;-71
2022/07/12 12:21:00;;;;;;;2.85;0.80;;;21.60;99.90;;;;;;6185352;23;20013;-71
2022/07/12 12:23:26;;;;;;;1.05;0.80;;;21.60;99.90;;;;;;6185294;23;20021;-74
2022/07/12 12:25:52;;;;;;;1.25;0.82;;;21.60;99.90;;;;;;6185117;23;20107;-73
2022/07/12 12:28:18;;;;;;;7.57;1.30;;;21.70;99.90;;;;;;6158922;23;20079;-74
2022/07/12 12:30:59;;;;;;;;;;;21.70;99.90;;;;;;6185856;23;20020;-75
2022/07/12 12:33:36;;;;;;;1.13;0.80;;;21.80;99.90;;;;;;6185466;23;19924;-71
2022/07/12 12:36:28;;;;;;;1.30;0.75;;;21.80;99.90;;;;;;6185458;23;20336;-72
2022/07/12 12:38:58;;;;;;;1.20;0.80;;;21.80;99.90;;;;;;6185337;23;20021;-71
2022/07/12 12:41:26;;;;;;;1.42;0.70;;;21.90;99.90;;;;;;6187928;23;20013;-72
2022/07/12 12:44:03;;;;;;;1.02;0.65;;;21.90;99.90;;;;;;6185238;23;20021;-71
2022/07/12 12:46:45;;;;;;;;;;;21.90;99.90;;;;;;6185729;23;20013;-71
2022/07/12 12:49:11;;;;;;;1.20;0.70;;;22.00;99.90;;;;;;6186665;23;20320;-71
2022/07/12 12:51:56;;;;;;;;;;;22.10;99.90;;;;;;6160702;23;20060;-71
2022/07/12 12:54:32;;;;;;;1.52;0.57;;;22.00;99.90;;;;;;6160492;23;19916;-72
2022/07/12 12:56:57;;;;;;;1.23;0.90;;;22.20;99.90;;;;;;6186637;23;20462;-70
2022/07/12 12:59:23;;;;;;;;;;;22.30;99.90;;;;;;6187798;23;20033;-71
2022/07/12 13:01:49;;;;;;;1.08;0.65;;;22.40;99.90;;;;;;6187060;23;20403;-71
2022/07/12 13:04:14;;;;;;;;;;;22.40;99.90;;;;;;6187621;23;20390;-72